createdAt,value
2022-09-15T00:01:12.797Z,65.08
2022-09-15T00:03:40.875Z,64.92
2022-09-15T00:06:09.321Z,64.66
2022-09-15T00:08:36.933Z,64.90
2022-09-15T00:11:20.011Z,64.79
2022-09-15T00:13:47.823Z,64.59
2022-09-15T00:16:16.985Z,64.73
2022-09-15T00:18:46.089Z,65.07
2022-09-15T00:21:22.029Z,64.96
2022-09-15T00:23:49.995Z,64.39
2022-09-15T00:26:22.473Z,65.22
2022-09-15T00:28:49.810Z,64.67
2022-09-15T00:31:21.088Z,64.61
2022-09-15T00:33:50.721Z,64.89
2022-09-15T00:36:19.361Z,64.69
2022-09-15T00:38:46.735Z,64.89
2022-09-15T00:41:18.141Z,64.34
2022-09-15T00:44:07.207Z,64.55
2022-09-15T00:46:41.596Z,64.41
2022-09-15T00:49:32.044Z,64.43
2022-09-15T00:52:14.913Z,64.63
2022-09-15T00:55:00.210Z,64.80
2022-09-15T00:57:52.856Z,64.87
2022-09-15T01:00:25.706Z,64.75
2022-09-15T01:02:53.215Z,65.01
2022-09-15T01:05:24.449Z,64.96
2022-09-15T01:08:07.606Z,65.21
2022-09-15T01:10:40.693Z,65.23
2022-09-15T01:13:12.228Z,65.36
2022-09-15T01:15:57.082Z,64.94
2022-09-15T01:19:03.173Z,65.33
2022-09-15T01:22:15.489Z,64.94
2022-09-15T01:24:59.928Z,65.84
2022-09-15T01:27:54.682Z,66.06
2022-09-15T01:30:25.660Z,65.97
2022-09-15T01:33:29.268Z,65.39
2022-09-15T01:36:22.002Z,65.59
2022-09-15T01:39:01.098Z,65.82
2022-09-15T01:41:34.619Z,65.69
2022-09-15T01:44:08.670Z,65.60
2022-09-15T01:46:46.819Z,65.46
2022-09-15T01:49:19.036Z,65.72
2022-09-15T01:51:48.945Z,65.80
2022-09-15T01:54:20.660Z,65.13
2022-09-15T01:56:48.715Z,65.47
2022-09-15T01:59:16.517Z,65.50
2022-09-15T02:02:07.968Z,64.99
2022-09-15T02:04:46.327Z,65.07
2022-09-15T02:07:21.628Z,65.08
2022-09-15T02:10:11.554Z,65.26
2022-09-15T02:13:17.272Z,65.52
2022-09-15T02:15:57.291Z,65.05
2022-09-15T02:18:38.987Z,65.08
2022-09-15T02:21:17.797Z,65.41
2022-09-15T02:23:54.952Z,65.24
2022-09-15T02:26:26.830Z,65.76
2022-09-15T02:28:56.517Z,65.59
2022-09-15T02:31:25.740Z,65.36
2022-09-15T02:34:02.414Z,65.07
2022-09-15T02:36:30.760Z,65.56
2022-09-15T02:39:08.872Z,65.21
2022-09-15T02:41:37.825Z,65.25
2022-09-15T02:44:05.669Z,65.21
2022-09-15T02:46:33.789Z,65.90
2022-09-15T02:49:00.736Z,66.13
2022-09-15T02:51:27.728Z,66.48
2022-09-15T02:53:55.043Z,65.81
2022-09-15T02:56:22.314Z,66.38
2022-09-15T02:58:49.286Z,66.75
2022-09-15T03:01:16.706Z,66.12
2022-09-15T03:03:45.948Z,66.13
2022-09-15T03:06:17.369Z,66.43
2022-09-15T03:08:56.353Z,66.26
2022-09-15T03:11:26.757Z,66.50
2022-09-15T03:14:03.300Z,66.61
2022-09-15T03:16:32.621Z,65.92
2022-09-15T03:19:00.421Z,66.17
2022-09-15T03:21:29.592Z,66.81
2022-09-15T03:23:58.848Z,66.21
2022-09-15T03:26:26.163Z,66.82
2022-09-15T03:28:53.574Z,66.63
2022-09-15T03:31:20.875Z,66.75
2022-09-15T03:33:48.443Z,67.58
2022-09-15T03:36:16.105Z,68.09
2022-09-15T03:38:43.085Z,67.62
2022-09-15T03:41:13.740Z,67.70
2022-09-15T03:43:41.522Z,68.14
2022-09-15T03:46:12.905Z,67.95
2022-09-15T03:48:40.794Z,67.64
2022-09-15T03:51:10.579Z,67.56
2022-09-15T03:53:42.459Z,67.31
2022-09-15T03:56:31.450Z,67.65
2022-09-15T03:59:01.533Z,67.23
2022-09-15T04:01:30.631Z,67.02
2022-09-15T04:03:58.872Z,67.16
2022-09-15T04:06:27.490Z,67.61
2022-09-15T04:08:55.592Z,67.22
2022-09-15T04:11:23.215Z,67.27
2022-09-15T04:13:50.269Z,67.17
2022-09-15T04:16:20.586Z,67.00
2022-09-15T04:18:48.086Z,67.05
2022-09-15T04:21:19.557Z,67.24
2022-09-15T04:23:47.751Z,67.55
2022-09-15T04:26:22.296Z,67.73
2022-09-15T04:28:49.524Z,67.65
2022-09-15T04:31:17.853Z,66.79
2022-09-15T04:33:46.593Z,66.93
2022-09-15T04:36:17.825Z,66.91
2022-09-15T04:38:45.900Z,66.74
2022-09-15T04:41:14.554Z,66.54
2022-09-15T04:43:45.792Z,67.48
2022-09-15T04:46:15.156Z,66.97
2022-09-15T04:48:44.024Z,66.68
2022-09-15T04:51:15.503Z,67.11
2022-09-15T04:53:43.448Z,66.86
2022-09-15T04:56:18.863Z,66.72
2022-09-15T04:58:53.513Z,67.09
2022-09-15T05:01:33.646Z,66.83
2022-09-15T05:04:05.909Z,67.34
2022-09-15T05:06:35.013Z,67.48
2022-09-15T05:09:09.704Z,67.51
2022-09-15T05:11:38.229Z,67.59
2022-09-15T05:14:05.419Z,67.56
2022-09-15T05:16:32.978Z,67.73
2022-09-15T05:19:02.934Z,67.18
2022-09-15T05:21:30.257Z,67.66
2022-09-15T05:23:58.117Z,67.57
2022-09-15T05:26:28.505Z,67.38
2022-09-15T05:28:57.062Z,67.52
2022-09-15T05:31:33.803Z,66.91
2022-09-15T05:34:04.565Z,67.06
2022-09-15T05:36:32.521Z,67.60
2022-09-15T05:39:00.337Z,67.30
2022-09-15T05:41:28.630Z,67.25
2022-09-15T05:43:58.178Z,66.94
2022-09-15T05:46:26.761Z,66.87
2022-09-15T05:48:56.147Z,67.08
2022-09-15T05:51:24.676Z,66.41
2022-09-15T05:53:51.808Z,66.72
2022-09-15T05:56:20.275Z,67.03
2022-09-15T05:58:49.032Z,67.05
2022-09-15T06:01:23.774Z,66.44
2022-09-15T06:03:51.945Z,66.39
2022-09-15T06:06:19.757Z,66.32
2022-09-15T06:08:54.239Z,66.91
2022-09-15T06:11:30.735Z,66.52
2022-09-15T06:14:05.955Z,66.78
2022-09-15T06:16:35.164Z,66.43
2022-09-15T06:19:03.552Z,66.83
2022-09-15T06:21:32.809Z,66.43
2022-09-15T06:24:07.202Z,66.49
2022-09-15T06:26:35.051Z,66.59
2022-09-15T06:29:05.311Z,66.25
2022-09-15T06:31:34.238Z,66.28
2022-09-15T06:34:02.455Z,66.36
2022-09-15T06:36:31.318Z,66.46
2022-09-15T06:38:59.384Z,66.49
2022-09-15T06:41:33.023Z,66.30
2022-09-15T06:44:21.044Z,66.31
2022-09-15T06:46:48.761Z,66.34
2022-09-15T06:49:15.975Z,66.26
2022-09-15T06:51:43.001Z,65.93
2022-09-15T06:54:09.976Z,66.24
2022-09-15T06:56:38.346Z,65.96
2022-09-15T06:59:06.013Z,66.08
2022-09-15T07:01:33.717Z,65.63
2022-09-15T07:04:04.434Z,65.82
2022-09-15T07:06:33.526Z,65.60
2022-09-15T07:09:02.391Z,65.87
2022-09-15T07:11:30.184Z,65.64
2022-09-15T07:13:57.224Z,65.72
2022-09-15T07:16:28.443Z,65.70
2022-09-15T07:18:57.301Z,65.60
2022-09-15T07:21:24.692Z,65.48
2022-09-15T07:23:52.275Z,65.09
2022-09-15T07:26:28.749Z,65.00
2022-09-15T07:28:59.666Z,64.96
2022-09-15T07:31:31.219Z,65.32
2022-09-15T07:34:02.240Z,65.28
2022-09-15T07:36:30.622Z,65.08
2022-09-15T07:38:58.561Z,65.27
2022-09-15T07:41:29.306Z,64.65
2022-09-15T07:43:59.744Z,64.32
2022-09-15T07:46:31.005Z,64.58
2022-09-15T07:48:58.506Z,63.92
2022-09-15T07:51:26.372Z,64.21
2022-09-15T07:53:54.555Z,63.76
2022-09-15T07:56:23.461Z,63.12
2022-09-15T07:58:51.476Z,62.97
2022-09-15T08:01:20.501Z,62.07
2022-09-15T08:03:50.453Z,61.96
2022-09-15T08:06:20.980Z,62.46
2022-09-15T08:08:49.154Z,61.94
2022-09-15T08:11:19.185Z,62.67
2022-09-15T08:13:52.359Z,61.82
2022-09-15T08:16:25.180Z,61.84
2022-09-15T08:18:54.552Z,62.04
2022-09-15T08:21:23.420Z,62.12
2022-09-15T08:23:56.742Z,61.12
2022-09-15T08:26:24.910Z,59.28
2022-09-15T08:28:52.145Z,58.78
2022-09-15T08:31:19.521Z,58.79
2022-09-15T08:33:52.861Z,57.30
2022-09-15T08:36:20.904Z,57.66
2022-09-15T08:38:48.442Z,58.32
2022-09-15T08:41:31.264Z,58.28
2022-09-15T08:44:28.616Z,57.33
2022-09-15T08:47:11.048Z,57.76
2022-09-15T08:50:17.138Z,57.13
2022-09-15T08:53:14.328Z,57.37
2022-09-15T08:55:55.720Z,56.61
2022-09-15T08:58:30.497Z,57.01
2022-09-15T09:01:03.339Z,56.18
2022-09-15T09:04:01.166Z,54.92
2022-09-15T09:06:41.093Z,55.09
2022-09-15T09:09:25.440Z,55.92
2022-09-15T09:12:14.233Z,56.35
2022-09-15T09:15:19.040Z,56.05
2022-09-15T09:18:10.996Z,56.80
2022-09-15T09:21:12.529Z,57.34
2022-09-15T09:23:52.666Z,57.01
2022-09-15T09:26:20.246Z,57.06
2022-09-15T09:29:02.193Z,57.27
2022-09-15T09:31:29.720Z,56.89
2022-09-15T09:34:34.089Z,57.08
2022-09-15T09:37:11.264Z,57.32
2022-09-15T09:39:38.433Z,57.75
2022-09-15T09:42:07.115Z,58.17
2022-09-15T09:44:35.050Z,58.55
2022-09-15T09:47:02.413Z,58.80
2022-09-15T09:49:45.348Z,58.35
2022-09-15T09:52:12.622Z,58.45
2022-09-15T09:54:39.985Z,59.03
2022-09-15T09:57:31.793Z,58.90
2022-09-15T09:59:59.107Z,59.08
2022-09-15T10:02:28.255Z,58.23
2022-09-15T10:05:05.863Z,58.25
2022-09-15T10:07:34.413Z,58.47
2022-09-15T10:10:02.265Z,58.70
2022-09-15T10:12:33.729Z,57.67
2022-09-15T10:15:05.778Z,57.48
2022-09-15T10:17:43.383Z,56.78
2022-09-15T10:20:32.659Z,55.65
2022-09-15T10:23:29.116Z,55.14
2022-09-15T10:26:22.027Z,55.72
2022-09-15T10:29:17.484Z,56.24
2022-09-15T10:31:46.295Z,56.38
2022-09-15T10:34:32.610Z,55.53
2022-09-15T10:37:26.597Z,56.00
2022-09-15T10:39:56.290Z,56.52
2022-09-15T10:42:29.540Z,55.76
2022-09-15T10:45:26.358Z,56.40
2022-09-15T10:47:53.244Z,56.28
2022-09-15T10:51:01.982Z,55.38
2022-09-15T10:54:10.697Z,56.11
2022-09-15T10:56:49.300Z,55.55
2022-09-15T10:59:35.025Z,55.39
2022-09-15T11:02:22.634Z,54.55
2022-09-15T11:05:20.369Z,55.29
2022-09-15T11:08:05.563Z,54.84
2022-09-15T11:10:36.749Z,53.80
2022-09-15T11:13:20.388Z,54.59
2022-09-15T11:16:27.093Z,54.31
2022-09-15T11:19:32.926Z,52.85
2022-09-15T11:22:12.241Z,54.03
2022-09-15T11:24:59.060Z,53.43
2022-09-15T11:27:31.207Z,53.62
2022-09-15T11:30:37.897Z,52.86
2022-09-15T11:33:25.474Z,53.23
2022-09-15T11:35:59.334Z,54.07
2022-09-15T11:38:35.622Z,53.86
2022-09-15T11:41:19.600Z,53.34
2022-09-15T11:44:02.034Z,52.72
2022-09-15T11:46:38.493Z,52.33
2022-09-15T11:49:17.541Z,53.20
2022-09-15T11:51:54.000Z,52.76
2022-09-15T11:54:45.934Z,51.79
2022-09-15T11:57:25.140Z,51.75
2022-09-15T11:59:58.014Z,52.66
2022-09-15T12:02:51.877Z,52.82
2022-09-15T12:05:32.364Z,53.20
2022-09-15T12:08:14.313Z,52.92
2022-09-15T12:10:48.818Z,53.39
2022-09-15T12:13:21.016Z,54.01
2022-09-15T12:15:49.959Z,54.88
2022-09-15T12:18:46.746Z,55.85
2022-09-15T12:21:16.677Z,57.28
2022-09-15T12:24:30.974Z,59.87
2022-09-15T12:27:01.170Z,61.27
2022-09-15T12:29:28.288Z,61.95
2022-09-15T12:32:28.908Z,62.27
2022-09-15T12:34:57.695Z,63.22
2022-09-15T12:37:30.023Z,63.26
2022-09-15T12:39:58.283Z,63.29
2022-09-15T12:42:29.932Z,65.50
2022-09-15T12:45:06.292Z,65.12
2022-09-15T12:47:54.732Z,65.98
2022-09-15T12:50:30.815Z,65.65
2022-09-15T12:53:23.443Z,66.48
2022-09-15T12:55:56.448Z,66.76
2022-09-15T12:58:36.705Z,66.63
2022-09-15T13:01:19.526Z,66.46
2022-09-15T13:03:47.583Z,67.27
2022-09-15T13:06:23.356Z,67.49
2022-09-15T13:09:02.482Z,67.47
2022-09-15T13:11:38.466Z,67.38
2022-09-15T13:14:08.360Z,67.10
2022-09-15T13:16:43.952Z,67.48
2022-09-15T13:19:22.678Z,68.04
2022-09-15T13:22:12.357Z,67.62
2022-09-15T13:25:04.821Z,67.73
2022-09-15T13:27:50.451Z,67.78
2022-09-15T13:30:29.342Z,67.76
2022-09-15T13:33:21.444Z,68.08
2022-09-15T13:38:04.166Z,68.39
2022-09-15T13:39:58.658Z,68.79
2022-09-15T13:43:09.553Z,69.05
2022-09-15T13:46:27.578Z,68.96
2022-09-15T13:49:26.054Z,69.17
2022-09-15T13:52:16.437Z,69.70
2022-09-15T13:55:14.380Z,69.43
2022-09-15T14:00:46.983Z,69.56
2022-09-15T14:03:20.351Z,69.20
2022-09-15T14:05:47.691Z,69.54
2022-09-15T14:08:27.646Z,69.50
2022-09-15T14:11:08.373Z,68.92
2022-09-15T14:13:40.880Z,69.47
2022-09-15T14:16:35.754Z,69.00
2022-09-15T14:19:28.181Z,68.93
2022-09-15T14:21:58.500Z,69.61
2022-09-15T14:24:30.178Z,68.96
2022-09-15T14:27:08.764Z,69.50
2022-09-15T14:29:43.788Z,69.94
2022-09-15T14:32:16.931Z,69.95
2022-09-15T14:34:45.357Z,70.92
2022-09-15T14:37:31.539Z,71.14
2022-09-15T14:40:01.464Z,71.29
2022-09-15T14:42:50.446Z,71.37
2022-09-15T14:48:19.017Z,72.51
2022-09-15T14:50:56.877Z,72.61
2022-09-15T14:53:25.535Z,72.63
2022-09-15T14:56:15.504Z,72.54
2022-09-15T14:59:00.483Z,72.20
2022-09-15T15:01:57.340Z,71.65
2022-09-15T15:04:33.223Z,70.74
2022-09-15T15:07:09.553Z,67.51
2022-09-15T15:09:56.437Z,66.39
2022-09-15T15:12:31.355Z,66.66
2022-09-15T15:15:00.461Z,67.41
2022-09-15T15:17:32.152Z,68.70
2022-09-15T15:20:06.223Z,67.88
2022-09-15T15:22:34.289Z,66.67
2022-09-15T15:25:01.680Z,65.06
2022-09-15T15:27:34.743Z,65.28
2022-09-15T15:30:31.057Z,66.02
2022-09-15T15:33:09.060Z,65.67
2022-09-15T15:35:37.399Z,65.56
2022-09-15T15:38:17.256Z,65.41
2022-09-15T15:40:46.269Z,65.50
2022-09-15T15:43:26.318Z,66.74
2022-09-15T15:46:01.227Z,67.66
2022-09-15T15:48:37.942Z,67.81
2022-09-15T15:51:07.443Z,67.38
2022-09-15T15:53:34.961Z,66.93
2022-09-15T15:56:02.712Z,66.91
2022-09-15T15:58:29.995Z,66.17
2022-09-15T16:00:57.748Z,63.84
2022-09-15T16:03:25.672Z,61.72
2022-09-15T16:05:57.696Z,61.12
2022-09-15T16:08:33.097Z,60.41
2022-09-15T16:11:03.448Z,60.85
2022-09-15T16:13:31.367Z,60.99
2022-09-15T16:16:01.146Z,59.05
2022-09-15T16:18:29.767Z,59.13
2022-09-15T16:20:56.845Z,59.55
2022-09-15T16:23:23.932Z,59.71
2022-09-15T16:26:05.538Z,60.19
2022-09-15T16:28:32.618Z,60.40
2022-09-15T16:30:59.750Z,60.78
2022-09-15T16:33:27.538Z,61.51
2022-09-15T16:36:06.439Z,61.37
2022-09-15T16:38:35.570Z,61.48
2022-09-15T16:41:04.584Z,61.60
2022-09-15T16:43:31.774Z,62.37
2022-09-15T16:45:58.717Z,62.22
2022-09-15T16:48:25.659Z,62.09
2022-09-15T16:53:40.709Z,62.16
2022-09-15T16:56:11.629Z,62.42
2022-09-15T16:58:39.694Z,62.68
2022-09-15T17:01:07.362Z,62.34
2022-09-15T17:03:34.809Z,62.61
2022-09-15T17:06:02.679Z,62.60
2022-09-15T17:08:32.414Z,62.82
2022-09-15T17:11:03.359Z,62.97
2022-09-15T17:13:34.109Z,62.76
2022-09-15T17:16:01.739Z,62.88
2022-09-15T17:18:29.881Z,62.92
2022-09-15T17:20:57.801Z,63.07
2022-09-15T17:23:34.733Z,62.96
2022-09-15T17:26:11.507Z,62.95
2022-09-15T17:28:39.505Z,63.59
2022-09-15T17:31:14.521Z,63.28
2022-09-15T17:33:42.029Z,63.50
2022-09-15T17:36:11.247Z,63.39
2022-09-15T17:38:41.020Z,63.42
2022-09-15T17:41:17.424Z,63.68
2022-09-15T17:43:45.011Z,63.88
2022-09-15T17:46:12.218Z,63.59
2022-09-15T17:48:39.545Z,63.97
2022-09-15T17:51:10.245Z,64.00
2022-09-15T17:53:37.508Z,63.61
2022-09-15T17:56:04.756Z,63.99
2022-09-15T17:58:31.939Z,64.05
2022-09-15T18:00:59.398Z,64.14
2022-09-15T18:03:36.177Z,63.77
2022-09-15T18:06:07.132Z,64.40
2022-09-15T18:08:36.433Z,64.44
2022-09-15T18:11:05.899Z,64.12
2022-09-15T18:13:34.098Z,64.16
2022-09-15T18:16:12.278Z,64.40
2022-09-15T18:18:41.043Z,64.40
2022-09-15T18:21:12.981Z,64.19
2022-09-15T18:23:42.439Z,64.05
2022-09-15T18:26:09.893Z,64.48
2022-09-15T18:28:37.069Z,64.19
2022-09-15T18:31:04.134Z,64.10
2022-09-15T18:33:31.369Z,64.63
2022-09-15T18:35:59.086Z,64.53
2022-09-15T18:38:26.835Z,64.31
2022-09-15T18:40:56.743Z,64.17
2022-09-15T18:43:27.268Z,64.45
2022-09-15T18:46:03.425Z,65.00
2022-09-15T18:48:30.840Z,64.82
2022-09-15T18:50:59.096Z,64.79
2022-09-15T18:53:29.221Z,65.17
2022-09-15T18:55:59.465Z,64.64
2022-09-15T18:58:27.520Z,65.04
2022-09-15T19:01:00.259Z,65.33
2022-09-15T19:03:27.570Z,65.02
2022-09-15T19:05:55.707Z,65.20
2022-09-15T19:08:26.604Z,64.87
2022-09-15T19:10:59.644Z,64.81
2022-09-15T19:13:30.269Z,65.04
2022-09-15T19:16:06.248Z,64.91
2022-09-15T19:18:35.759Z,64.31
2022-09-15T19:21:12.737Z,64.54
2022-09-15T19:23:39.923Z,64.78
2022-09-15T19:26:13.626Z,64.44
2022-09-15T19:28:42.461Z,64.74
2022-09-15T19:31:10.866Z,64.38
2022-09-15T19:33:39.945Z,64.28
2022-09-15T19:36:28.295Z,64.81
2022-09-15T19:39:01.105Z,64.82
2022-09-15T19:41:29.047Z,64.68
2022-09-15T19:43:56.455Z,65.10
2022-09-15T19:46:25.595Z,64.63
2022-09-15T19:48:53.792Z,65.07
2022-09-15T19:51:21.959Z,65.26
2022-09-15T19:53:52.945Z,65.39
2022-09-15T19:56:22.456Z,65.13
2022-09-15T19:58:50.005Z,64.75
2022-09-15T20:01:18.348Z,64.83
2022-09-15T20:03:45.720Z,65.39
2022-09-15T20:06:13.418Z,64.80
2022-09-15T20:08:41.910Z,64.98
2022-09-15T20:11:10.787Z,65.30
2022-09-15T20:13:41.515Z,65.30
2022-09-15T20:16:08.973Z,65.44
2022-09-15T20:18:39.431Z,65.52
2022-09-15T20:21:07.869Z,65.50
2022-09-15T20:23:35.500Z,65.15
2022-09-15T20:26:06.824Z,65.62
2022-09-15T20:28:35.797Z,65.41
2022-09-15T20:31:09.850Z,65.29
2022-09-15T20:33:39.943Z,66.07
2022-09-15T20:36:17.754Z,66.01
2022-09-15T20:38:46.333Z,65.70
2022-09-15T20:41:15.928Z,65.69
2022-09-15T20:43:44.362Z,66.01
2022-09-15T20:46:18.989Z,65.74
2022-09-15T20:48:47.670Z,66.17
2022-09-15T20:51:16.888Z,66.32
2022-09-15T20:53:47.589Z,66.15
2022-09-15T20:56:16.413Z,66.03
2022-09-15T20:58:44.589Z,65.81
2022-09-15T21:01:39.058Z,66.17
2022-09-15T21:04:08.402Z,66.11
2022-09-15T21:06:36.085Z,66.52
2022-09-15T21:09:04.794Z,66.20
2022-09-15T21:11:32.108Z,66.16
2022-09-15T21:13:59.335Z,66.55
2022-09-15T21:16:28.790Z,65.84
2022-09-15T21:18:58.145Z,66.11
2022-09-15T21:21:29.847Z,65.71
2022-09-15T21:24:01.726Z,66.01
2022-09-15T21:26:33.089Z,66.44
2022-09-15T21:29:01.051Z,66.33
2022-09-15T21:31:33.162Z,66.06
2022-09-15T21:34:01.107Z,66.33
2022-09-15T21:36:32.045Z,66.38
2022-09-15T21:38:59.820Z,65.98
2022-09-15T21:41:29.971Z,65.75
2022-09-15T21:43:58.962Z,66.19
2022-09-15T21:46:29.908Z,66.03
2022-09-15T21:48:59.650Z,66.07
2022-09-15T21:51:30.798Z,66.12
2022-09-15T21:53:59.646Z,66.24
2022-09-15T21:56:29.479Z,66.50
2022-09-15T21:58:57.245Z,66.50
2022-09-15T22:01:31.301Z,66.53
2022-09-15T22:04:05.346Z,67.04
2022-09-15T22:06:35.679Z,66.77
2022-09-15T22:09:15.241Z,66.93
2022-09-15T22:11:43.182Z,67.04
2022-09-15T22:14:11.872Z,67.07
2022-09-15T22:16:43.171Z,66.80
2022-09-15T22:19:11.629Z,66.93
2022-09-15T22:21:41.803Z,67.06
2022-09-15T22:24:12.698Z,66.62
2022-09-15T22:26:42.071Z,66.60
2022-09-15T22:29:08.992Z,66.54
2022-09-15T22:31:36.678Z,66.71
2022-09-15T22:34:04.272Z,66.83
2022-09-15T22:36:31.942Z,66.42
2022-09-15T22:39:05.092Z,66.94
2022-09-15T22:41:39.423Z,66.46
2022-09-15T22:44:17.774Z,66.63
2022-09-15T22:46:45.006Z,66.52
2022-09-15T22:49:11.962Z,66.13
2022-09-15T22:51:38.887Z,66.46
2022-09-15T22:54:06.133Z,66.43
2022-09-15T22:56:33.295Z,65.94
2022-09-15T22:59:00.855Z,66.25
2022-09-15T23:01:31.246Z,66.45
2022-09-15T23:04:01.937Z,66.20
2022-09-15T23:06:33.609Z,66.03
2022-09-15T23:09:06.199Z,65.59
2022-09-15T23:11:33.604Z,66.13
2022-09-15T23:14:01.703Z,65.63
2022-09-15T23:16:30.665Z,65.86
2022-09-15T23:18:58.342Z,65.92
2022-09-15T23:21:25.865Z,65.90
2022-09-15T23:23:54.658Z,65.93
2022-09-15T23:26:23.731Z,65.63
2022-09-15T23:28:51.058Z,65.85
2022-09-15T23:31:19.154Z,65.58
2022-09-15T23:33:47.069Z,65.28
2022-09-15T23:36:19.889Z,65.62
2022-09-15T23:38:48.480Z,65.31
2022-09-15T23:41:17.060Z,65.60
2022-09-15T23:43:45.233Z,65.64
2022-09-15T23:46:12.238Z,65.46
2022-09-15T23:48:39.509Z,65.44
2022-09-15T23:51:06.823Z,65.58
2022-09-15T23:53:34.205Z,65.46
2022-09-15T23:56:02.117Z,65.52
2022-09-15T23:58:29.198Z,65.03
